Time;durP1;ratioP1;P1;durP2;ratioP2;P2;SDS_P1;SDS_P2;PMS_P1;PMS_P2;Temp;Humidity;BMP_temperature;BMP_pressure;BME280_temperature;BME280_humidity;BME280_pressure;Samples;Min_cycle;Max_cycle;Signal;HPM_P1;HPM_P2
2022/04/07 00:00:46;;;;;;;4.70;4.47;;;;;;;13.37;57.30;98744.41;5052861;28;20290;-71
2022/04/07 00:03:13;;;;;;;3.80;3.60;;;;;;;13.35;56.89;98743.81;5053367;28;20196;-71
2022/04/07 00:05:39;;;;;;;4.10;3.90;;;;;;;13.33;57.01;98742.41;5063153;28;20271;-71
2022/04/07 00:08:07;;;;;;;4.33;3.93;;;;;;;13.13;56.59;98710.75;5073094;28;20195;-72
2022/04/07 00:10:33;;;;;;;4.10;3.80;;;;;;;13.05;56.69;98724.44;5055278;28;20240;-71
2022/04/07 00:13:00;;;;;;;6.33;4.20;;;;;;;12.97;56.64;98724.78;5053175;28;20265;-71
2022/04/07 00:15:28;;;;;;;4.10;3.90;;;;;;;12.87;56.81;98724.47;5053869;28;20270;-71
2022/04/07 00:17:57;;;;;;;6.50;3.60;;;;;;;12.82;56.55;98716.34;5052501;28;20632;-71
2022/04/07 00:20:24;;;;;;;4.10;3.80;;;;;;;12.87;56.49;98721.81;5051614;28;20225;-72
2022/04/07 00:22:51;;;;;;;3.73;3.53;;;;;;;12.93;56.30;98726.25;5052588;28;20258;-71
2022/04/07 00:25:18;;;;;;;3.90;3.60;;;;;;;12.97;55.95;98723.91;5053638;28;20200;-72
2022/04/07 00:27:45;;;;;;;4.70;4.30;;;;;;;12.95;55.71;98734.81;5035155;28;20192;-72
2022/04/07 00:30:13;;;;;;;3.67;3.47;;;;;;;12.91;55.65;98733.63;5052772;28;20200;-72
2022/04/07 00:32:45;;;;;;;5.17;4.40;;;;;;;12.97;55.87;98743.44;5053125;28;20200;-72
2022/04/07 00:35:12;;;;;;;4.30;4.00;;;;;;;12.95;55.33;98737.47;5052275;28;20196;-72
2022/04/07 00:37:40;;;;;;;4.37;4.00;;;;;;;12.97;54.91;98724.78;5052603;28;20204;-72
2022/04/07 00:40:09;;;;;;;4.27;3.97;;;;;;;12.95;54.90;98718.81;5035227;28;20224;-72
2022/04/07 00:42:44;;;;;;;5.13;4.30;;;;;;;12.87;54.86;98716.47;5052559;28;20200;-71
2022/04/07 00:45:11;;;;;;;4.53;4.23;;;;;;;12.74;54.82;98703.38;5053145;28;20184;-71
2022/04/07 00:47:37;;;;;;;4.93;4.53;;;;;;;12.49;55.17;98689.41;5052142;28;20192;-71
2022/04/07 00:50:06;;;;;;;5.60;4.50;;;;;;;12.58;55.42;98696.03;5052426;28;20200;-71
2022/04/07 00:52:34;;;;;;;4.80;4.50;;;;;;;12.41;55.80;98705.72;5052067;28;20192;-70
2022/04/07 00:55:02;;;;;;;6.10;5.43;;;;;;;12.38;56.15;98705.38;5052260;28;20201;-70
2022/04/07 00:57:29;;;;;;;4.27;4.07;;;;;;;12.44;55.90;98699.94;5052113;28;20229;-71
2022/04/07 00:59:58;;;;;;;4.77;4.37;;;;;;;12.40;56.08;98695.28;5051837;28;20765;-70
2022/04/07 01:02:25;;;;;;;5.60;5.20;;;;;;;12.27;56.42;98685.66;5051927;28;20188;-70
2022/04/07 01:04:52;;;;;;;5.30;4.90;;;;;;;12.39;56.32;98683.84;5034309;28;20259;-70
2022/04/07 01:07:20;;;;;;;5.80;5.30;;;;;;;12.45;55.98;98688.25;5034890;28;20249;-70
2022/04/07 01:09:47;;;;;;;5.97;4.90;;;;;;;12.46;56.03;98687.19;5052310;28;20263;-70
2022/04/07 01:12:14;;;;;;;6.00;5.50;;;;;;;12.46;56.20;98689.06;5017921;28;20754;-70
2022/04/07 01:14:54;;;;;;;7.17;4.80;;;;;;;12.48;56.36;98695.78;5034746;28;20573;-70
2022/04/07 01:17:22;;;;;;;7.20;5.07;;;;;;;12.48;55.93;98690.47;5051956;28;20763;-70
2022/04/07 01:19:49;;;;;;;6.07;5.43;;;;;;;12.46;56.25;98686.41;5034661;28;20220;-70
2022/04/07 01:22:16;;;;;;;6.30;5.20;;;;;;;12.43;56.21;98676.19;5052845;28;20193;-70
2022/04/07 01:24:44;;;;;;;5.37;4.93;;;;;;;12.45;55.96;98685.56;5051644;28;20666;-70
2022/04/07 01:27:13;;;;;;;5.23;4.80;;;;;;;12.47;55.85;98688.00;5051669;28;20210;-70
2022/04/07 01:29:41;;;;;;;6.00;5.60;;;;;;;12.47;55.97;98704.81;5052010;28;20265;-70
2022/04/07 01:32:11;;;;;;;5.23;4.87;;;;;;;12.46;55.90;98681.88;5051664;28;20558;-70
2022/04/07 01:34:39;;;;;;;6.00;5.43;;;;;;;12.30;56.11;98682.53;5051689;28;20188;-71
2022/04/07 01:37:07;;;;;;;6.10;5.60;;;;;;;12.33;56.39;98670.63;5034643;28;20715;-72
2022/04/07 01:39:36;;;;;;;5.83;5.30;;;;;;;12.29;56.36;98675.56;5051858;28;20196;-72
2022/04/07 01:42:05;;;;;;;6.27;5.80;;;;;;;12.25;56.84;98663.75;5052283;28;20702;-72
2022/04/07 01:44:37;;;;;;;6.57;5.53;;;;;;;12.23;56.52;98641.88;5052850;28;20196;-72
2022/04/07 01:47:05;;;;;;;6.30;5.90;;;;;;;11.91;57.23;98629.84;5052663;28;20203;-73
2022/04/07 01:49:37;;;;;;;5.53;5.13;;;;;;;11.75;58.36;98627.78;5051424;28;20203;-72
2022/04/07 01:52:06;;;;;;;6.20;5.80;;;;;;;11.80;58.41;98630.59;5052429;28;20250;-72
2022/04/07 01:54:34;;;;;;;6.63;6.07;;;;;;;11.72;57.96;98624.78;5051591;28;20774;-72
2022/04/07 01:57:01;;;;;;;6.80;6.23;;;;;;;11.74;58.67;98623.50;5052325;28;20656;-72
2022/04/07 01:59:30;;;;;;;8.23;6.40;;;;;;;11.75;58.64;98609.16;5033750;28;20207;-72
2022/04/07 02:01:57;;;;;;;6.97;6.50;;;;;;;11.61;58.66;98612.22;5034388;28;20195;-71
2022/04/07 02:04:24;;;;;;;6.73;6.27;;;;;;;11.59;59.20;98615.06;5052387;28;20211;-71
2022/04/07 02:06:50;;;;;;;6.93;6.43;;;;;;;11.61;59.03;98615.72;5034090;28;20281;-71
2022/04/07 02:09:17;;;;;;;6.57;6.07;;;;;;;11.52;59.45;98619.69;5055385;28;20231;-71
2022/04/07 02:11:44;;;;;;;7.27;6.57;;;;;;;11.52;59.59;98609.03;5055078;28;20717;-71
2022/04/07 02:14:11;;;;;;;10.13;6.37;;;;;;;11.48;59.73;98607.88;5037696;28;20562;-71
2022/04/07 02:16:39;;;;;;;7.43;6.73;;;;;;;11.42;59.94;98598.09;5037573;28;20207;-70
2022/04/07 02:19:06;;;;;;;8.30;6.57;;;;;;;11.51;59.57;98586.13;5055181;28;20632;-70
2022/04/07 02:21:33;;;;;;;7.43;6.73;;;;;;;11.49;60.36;98576.75;5037022;28;20262;-70
2022/04/07 02:24:01;;;;;;;7.47;6.77;;;;;;;11.40;60.56;98573.59;5055234;28;20207;-71
2022/04/07 02:26:30;;;;;;;6.90;6.40;;;;;;;11.45;60.25;98565.75;5037726;28;20278;-71
2022/04/07 02:28:57;;;;;;;7.83;7.00;;;;;;;11.26;60.21;98534.91;5055197;28;20226;-71
2022/04/07 02:31:23;;;;;;;7.47;6.90;;;;;;;11.37;60.41;98557.25;5055673;28;20198;-71
2022/04/07 02:33:53;;;;;;;7.40;6.80;;;;;;;11.28;60.47;98562.09;5037032;28;20239;-71
2022/04/07 02:36:20;;;;;;;6.97;6.37;;;;;;;11.31;60.77;98569.59;5055780;28;20605;-72
2022/04/07 02:38:47;;;;;;;7.30;6.70;;;;;;;11.41;60.67;98563.75;5037309;28;20287;-70
2022/04/07 02:41:13;;;;;;;11.83;7.23;;;;;;;11.47;60.56;98554.91;5054636;28;20284;-70
2022/04/07 02:43:40;;;;;;;7.80;7.10;;;;;;;11.50;60.56;98557.91;5036944;28;20256;-70
2022/04/07 02:46:07;;;;;;;7.27;6.60;;;;;;;11.60;60.15;98552.06;5054741;28;20625;-71
2022/04/07 02:48:34;;;;;;;7.37;6.50;;;;;;;11.62;59.99;98542.84;5020556;28;20285;-70
2022/04/07 02:51:02;;;;;;;7.53;6.63;;;;;;;11.62;60.10;98540.19;5054858;28;20260;-70
2022/04/07 02:53:29;;;;;;;6.87;6.27;;;;;;;11.32;60.51;98536.69;5036807;28;20253;-70
2022/04/07 02:55:56;;;;;;;10.93;7.30;;;;;;;11.36;60.23;98529.06;5054530;28;20553;-69
2022/04/07 02:58:23;;;;;;;7.30;6.73;;;;;;;11.26;60.28;98513.63;5054405;28;20682;-70
2022/04/07 03:00:50;;;;;;;9.53;8.40;;;;;;;11.36;60.38;98537.84;5054752;28;20222;-70
2022/04/07 03:03:17;;;;;;;7.03;6.33;;;;;;;11.40;60.47;98544.34;5036796;28;20652;-70
2022/04/07 03:05:43;;;;;;;7.57;6.53;;;;;;;11.46;59.93;98548.75;5036166;28;20203;-70
2022/04/07 03:08:13;;;;;;;7.00;6.30;;;;;;;11.47;59.81;98542.41;5055154;28;20206;-70
2022/04/07 03:10:39;;;;;;;9.47;7.33;;;;;;;11.40;60.28;98514.28;5054350;28;20239;-70
2022/04/07 03:13:06;;;;;;;10.60;8.50;;;;;;;11.37;60.32;98531.50;5054233;28;20203;-71
2022/04/07 03:15:34;;;;;;;8.97;8.10;;;;;;;11.35;60.59;98506.97;5053961;28;20203;-70
2022/04/07 03:18:01;;;;;;;8.93;7.23;;;;;;;11.16;60.40;98494.78;5053857;28;20200;-70
2022/04/07 03:20:28;;;;;;;8.00;7.40;;;;;;;11.32;60.81;98496.81;5054409;28;20285;-70
2022/04/07 03:22:55;;;;;;;7.90;6.60;;;;;;;11.36;60.73;98503.31;5053788;28;20629;-70
2022/04/07 03:25:23;;;;;;;7.60;6.80;;;;;;;11.45;60.70;98507.25;5053954;28;20196;-71
2022/04/07 03:27:50;;;;;;;7.60;7.00;;;;;;;11.48;60.68;98501.50;5053926;28;20196;-72
2022/04/07 03:30:17;;;;;;;8.43;7.73;;;;;;;11.48;60.83;98506.00;5053766;28;20203;-71
2022/04/07 03:32:43;;;;;;;7.90;7.10;;;;;;;11.52;60.65;98518.63;5053431;28;20211;-71
2022/04/07 03:35:10;;;;;;;7.77;7.17;;;;;;;11.51;60.68;98514.31;5054158;28;20196;-71
2022/04/07 03:37:37;;;;;;;9.33;7.60;;;;;;;11.58;60.28;98516.88;5052987;28;20601;-71
2022/04/07 03:40:04;;;;;;;7.53;6.93;;;;;;;11.62;60.56;98515.44;5035851;28;20256;-71
2022/04/07 03:42:32;;;;;;;8.00;7.17;;;;;;;11.63;60.49;98504.56;5053585;28;20262;-71
2022/04/07 03:45:02;;;;;;;7.50;6.77;;;;;;;11.68;60.59;98501.25;5053622;28;20199;-71
2022/04/07 03:47:30;;;;;;;10.80;7.83;;;;;;;11.60;60.87;98499.69;5053435;28;20199;-71
2022/04/07 03:49:57;;;;;;;10.87;7.70;;;;;;;11.68;60.97;98501.25;5054015;28;20197;-71
2022/04/07 03:52:24;;;;;;;8.30;7.00;;;;;;;11.69;60.11;98495.69;5053504;28;20199;-71
2022/04/07 03:54:52;;;;;;;8.17;7.43;;;;;;;11.69;59.91;98498.34;5053427;28;20203;-71
2022/04/07 03:57:19;;;;;;;10.17;7.93;;;;;;;11.76;60.04;98493.72;5053395;28;20205;-71
2022/04/07 03:59:47;;;;;;;7.63;7.00;;;;;;;11.54;60.30;98468.66;5053562;28;20283;-71
2022/04/07 04:02:14;;;;;;;13.03;8.20;;;;;;;11.60;60.75;98473.09;5053033;28;20285;-71
2022/04/07 04:04:41;;;;;;;11.93;8.07;;;;;;;11.56;60.48;98469.25;5053177;28;20253;-72
2022/04/07 04:07:07;;;;;;;10.90;8.67;;;;;;;11.55;60.84;98469.50;5035169;28;20289;-72
2022/04/07 04:09:34;;;;;;;11.43;9.47;;;;;;;11.20;61.84;98461.38;5052142;28;20295;-72
2022/04/07 04:12:01;;;;;;;13.23;8.83;;;;;;;11.11;62.38;98454.75;5053058;28;20262;-71
2022/04/07 04:14:28;;;;;;;8.93;8.03;;;;;;;11.00;62.01;98418.31;5053114;28;20191;-71
2022/04/07 04:16:56;;;;;;;13.80;12.37;;;;;;;11.06;62.59;98453.81;5052849;28;20205;-71
2022/04/07 04:19:24;;;;;;;8.73;8.10;;;;;;;11.14;62.19;98467.59;5053276;28;20191;-72
2022/04/07 04:21:51;;;;;;;9.10;8.10;;;;;;;10.95;63.19;98468.66;5052845;28;20662;-72
2022/04/07 04:24:18;;;;;;;11.77;8.30;;;;;;;10.89;62.75;98459.75;5034519;28;20597;-72
2022/04/07 04:26:44;;;;;;;10.10;9.13;;;;;;;10.85;63.16;98458.56;5034902;28;20210;-71
2022/04/07 04:29:11;;;;;;;10.13;9.20;;;;;;;10.80;63.93;98465.56;5052337;28;20199;-71
2022/04/07 04:31:38;;;;;;;15.47;8.73;;;;;;;10.92;63.08;98469.09;5052333;28;20196;-72
2022/04/07 04:34:06;;;;;;;12.80;8.93;;;;;;;10.94;62.79;98451.09;5052375;28;20202;-72
2022/04/07 04:36:34;;;;;;;9.47;8.57;;;;;;;11.10;62.49;98469.06;5052717;28;20278;-71
2022/04/07 04:39:01;;;;;;;11.53;9.23;;;;;;;11.10;61.75;98460.31;5052550;28;20300;-72
2022/04/07 04:41:28;;;;;;;11.77;8.90;;;;;;;11.21;62.57;98460.34;5051893;28;20652;-73
2022/04/07 04:43:55;;;;;;;9.97;8.97;;;;;;;11.27;61.67;98461.31;5034841;28;20244;-70
2022/04/07 04:46:22;;;;;;;12.23;9.30;;;;;;;11.29;61.88;98453.91;5034542;28;20272;-71
2022/04/07 04:48:50;;;;;;;11.23;9.50;;;;;;;11.39;61.99;98451.53;5053431;28;20196;-71
2022/04/07 04:51:18;;;;;;;14.57;9.43;;;;;;;11.36;61.23;98454.63;5052452;28;20199;-71
2022/04/07 04:53:45;;;;;;;15.47;10.13;;;;;;;11.52;61.30;98465.44;5053145;28;20205;-71
2022/04/07 04:56:12;;;;;;;15.17;9.37;;;;;;;11.73;61.54;98480.91;5052862;28;20203;-70
2022/04/07 04:58:39;;;;;;;15.60;9.30;;;;;;;11.93;60.01;98468.13;5051891;28;20197;-70
2022/04/07 05:01:06;;;;;;;10.73;8.57;;;;;;;12.15;59.52;98487.78;5051677;28;20773;-70
2022/04/07 05:03:32;;;;;;;18.67;10.30;;;;;;;12.33;58.17;98485.00;5051844;28;20628;-70
2022/04/07 05:05:59;;;;;;;12.20;10.17;;;;;;;12.46;57.12;98468.78;5051273;28;20196;-70
2022/04/07 05:08:27;;;;;;;11.67;9.90;;;;;;;12.27;58.26;98448.69;5051603;28;20649;-72
2022/04/07 05:10:54;;;;;;;10.70;9.23;;;;;;;12.50;58.03;98445.97;5051730;28;20302;-71
2022/04/07 05:13:21;;;;;;;16.73;11.07;;;;;;;12.73;57.16;98453.94;5052113;28;20196;-71
2022/04/07 05:15:48;;;;;;;13.50;9.23;;;;;;;12.88;56.92;98462.25;5052833;28;20189;-73
2022/04/07 05:18:15;;;;;;;14.07;9.70;;;;;;;13.09;55.98;98464.31;5051962;28;20192;-72
2022/04/07 05:20:42;;;;;;;16.93;11.17;;;;;;;12.87;55.50;98449.97;5051562;28;20250;-70
2022/04/07 05:23:08;;;;;;;16.57;12.23;;;;;;;12.80;56.41;98457.31;5050223;28;20665;-71
2022/04/07 05:25:36;;;;;;;23.57;11.83;;;;;;;12.92;56.23;98458.09;5051953;28;20250;-71
2022/04/07 05:28:03;;;;;;;8.03;4.70;;;;;;;13.13;64.21;98454.81;5052177;28;20192;-73
2022/04/07 05:30:30;;;;;;;12.80;10.57;;;;;;;13.85;64.34;98445.94;5051812;28;20652;-72
2022/04/07 05:32:57;;;;;;;14.97;10.03;;;;;;;14.08;54.20;98437.78;5054598;28;20192;-72
2022/04/07 05:35:26;;;;;;;11.90;9.90;;;;;;;14.11;53.45;98436.50;5056067;28;20192;-77
2022/04/07 05:37:58;;;;;;;12.13;10.57;;;;;;;14.06;52.40;98439.91;5070045;28;20219;-72
2022/04/07 05:40:24;;;;;;;15.03;9.80;;;;;;;13.90;52.49;98434.56;5067520;28;20193;-71
2022/04/07 05:42:53;;;;;;;8.17;6.93;;;;;;;13.86;59.97;98415.56;5055230;28;20762;-72
2022/04/07 05:45:20;;;;;;;11.17;10.00;;;;;;;14.07;53.34;98414.81;5055995;28;20617;-72
2022/04/07 05:47:46;;;;;;;11.07;10.03;;;;;;;14.10;54.96;98418.84;5055672;28;20192;-72
2022/04/07 05:50:13;;;;;;;17.40;9.63;;;;;;;14.07;54.44;98409.47;5070629;28;20200;-74
2022/04/07 05:52:40;;;;;;;11.37;9.40;;;;;;;14.03;53.96;98396.84;5075337;28;20200;-72
2022/04/07 05:55:08;;;;;;;7.85;6.75;;;;;;;14.06;59.23;98378.50;5075124;28;20437;-75
2022/04/07 05:57:34;;;;;;;19.33;10.27;;;;;;;14.60;53.80;98388.34;5076123;28;20192;-77
2022/04/07 06:00:05;;;;;;;14.53;9.90;;;;;;;14.72;51.45;98382.88;5075298;28;20245;-75
2022/04/07 06:02:32;;;;;;;11.95;10.82;;;;;;;14.88;53.03;98380.13;5058630;28;20447;-66
2022/04/07 06:04:59;;;;;;;11.50;9.43;;;;;;;15.18;53.88;98372.41;5055068;28;20223;-66
2022/04/07 06:07:25;;;;;;;12.63;11.00;;;;;;;15.42;50.20;98380.97;5055198;28;20232;-69
2022/04/07 06:09:52;;;;;;;16.23;11.13;;;;;;;15.37;49.32;98384.41;5054759;28;20701;-68
2022/04/07 06:12:19;;;;;;;11.93;10.53;;;;;;;15.30;49.44;98388.31;5055024;28;20201;-69
2022/04/07 06:14:45;;;;;;;11.17;9.53;;;;;;;15.33;48.50;98385.13;5055167;28;20188;-69
2022/04/07 06:17:13;;;;;;;15.83;9.83;;;;;;;15.35;47.80;98378.50;5054912;28;20189;-74
2022/04/07 06:19:40;;;;;;;18.63;9.83;;;;;;;15.45;47.87;98369.75;5054898;28;20197;-72
2022/04/07 06:22:07;;;;;;;17.70;10.00;;;;;;;15.58;47.38;98369.34;5070147;28;20228;-73
2022/04/07 06:24:34;;;;;;;14.87;11.20;;;;;;;15.71;47.24;98361.69;5070853;28;20573;-73
2022/04/07 06:27:00;;;;;;;13.30;10.97;;;;;;;15.75;47.04;98361.97;5055413;28;20239;-75
2022/04/07 06:29:27;;;;;;;17.93;10.73;;;;;;;15.62;47.36;98354.38;5055328;28;20255;-76
2022/04/07 06:31:54;;;;;;;18.73;10.27;;;;;;;15.54;47.32;98355.66;5055316;28;20196;-76
2022/04/07 06:34:22;;;;;;;16.57;11.17;;;;;;;15.27;47.17;98352.16;5055202;28;20197;-76
2022/04/07 06:36:49;;;;;;;19.33;10.70;;;;;;;15.14;48.05;98346.41;5054995;28;20656;-75
2022/04/07 06:39:15;;;;;;;23.50;11.37;;;;;;;15.43;47.57;98345.94;5054736;28;20246;-74
2022/04/07 06:41:42;;;;;;;16.20;10.57;;;;;;;15.80;47.07;98348.63;5054639;28;20266;-74
2022/04/07 06:44:09;;;;;;;11.50;9.00;;;;;;;16.27;45.12;98335.25;5054325;28;20200;-75
2022/04/07 06:46:35;;;;;;;15.07;9.23;;;;;;;16.60;43.27;98334.91;5054588;28;20193;-76
2022/04/07 06:49:02;;;;;;;11.30;9.57;;;;;;;16.99;42.55;98342.25;5054391;28;20188;-78
2022/04/07 06:51:30;;;;;;;16.07;10.30;;;;;;;17.37;41.60;98331.06;5056926;28;20254;-78
2022/04/07 06:53:57;;;;;;;12.43;9.87;;;;;;;17.74;41.03;98336.19;5073591;28;20196;-76
2022/04/07 06:56:26;;;;;;;12.17;8.67;;;;;;;17.97;39.66;98327.56;5074096;28;20203;-76
2022/04/07 06:58:54;;;;;;;12.83;9.90;;;;;;;18.28;38.84;98321.03;5074169;28;20680;-80
2022/04/07 07:01:21;;;;;;;15.17;10.37;;;;;;;18.71;38.68;98325.75;5074052;28;22182;-92
2022/04/07 07:03:49;;;;;;;15.93;10.43;;;;;;;18.64;37.95;98314.47;5072478;28;20210;-82
2022/04/07 07:06:16;;;;;;;11.73;10.17;;;;;;;18.66;38.57;98313.13;5039438;28;20684;-81
2022/04/07 07:08:45;;;;;;;11.60;10.40;;;;;;;19.05;37.95;98310.47;5074174;28;20198;-93
2022/04/07 07:11:12;;;;;;;11.47;9.97;;;;;;;19.34;37.05;98301.44;5073768;28;20232;-81
2022/04/07 07:13:39;;;;;;;12.40;9.57;;;;;;;19.47;36.80;98283.81;5055891;28;20267;-80
2022/04/07 07:16:06;;;;;;;14.30;9.23;;;;;;;19.54;36.09;98281.59;5073433;28;20679;-80
2022/04/07 07:18:38;;;;;;;10.17;9.20;;;;;;;19.35;35.23;98245.66;5055823;28;20196;-84
2022/04/07 07:21:05;;;;;;;18.30;9.07;;;;;;;19.39;35.71;98281.72;5074565;28;20230;-78
2022/04/07 07:23:33;;;;;;;12.27;8.60;;;;;;;19.48;35.62;98290.81;5074536;28;20238;-79
2022/04/07 07:26:02;;;;;;;19.97;9.50;;;;;;;19.10;37.17;98270.06;5066670;28;20664;-80
2022/04/07 07:28:30;;;;;;;10.30;9.30;;;;;;;19.23;36.34;98250.56;5072744;28;20222;-80
2022/04/07 07:30:59;;;;;;;10.00;9.10;;;;;;;19.56;35.94;98263.28;5073507;28;20246;-79
2022/04/07 07:33:26;;;;;;;12.47;8.27;;;;;;;19.83;35.65;98277.00;5073204;28;20206;-82
2022/04/07 07:35:53;;;;;;;9.73;8.80;;;;;;;20.09;35.04;98264.88;5073542;28;20207;-86
2022/04/07 07:38:21;;;;;;;14.60;9.27;;;;;;;20.25;34.82;98261.75;5073217;28;20204;-78
2022/04/07 07:40:49;;;;;;;9.43;8.77;;;;;;;20.31;34.34;98255.19;5055060;28;20684;-76
2022/04/07 07:43:17;;;;;;;7.80;7.20;;;;;;;20.65;36.47;98256.94;5073579;28;20249;-75
2022/04/07 07:45:44;;;;;;;9.87;8.97;;;;;;;21.01;34.08;98231.03;5073027;28;20207;-75
2022/04/07 07:48:12;;;;;;;10.57;9.57;;;;;;;21.12;33.74;98260.31;5073266;28;20281;-73
2022/04/07 07:50:41;;;;;;;13.63;10.53;;;;;;;20.84;34.45;98263.94;5072941;28;20196;-72
2022/04/07 07:53:09;;;;;;;10.37;9.27;;;;;;;20.98;33.82;98258.66;5055076;28;20200;-73
2022/04/07 07:55:37;;;;;;;14.90;8.03;;;;;;;20.87;34.14;98257.97;5073115;28;20261;-75
2022/04/07 07:58:05;;;;;;;13.97;9.17;;;;;;;20.49;33.84;98248.22;5054841;28;20230;-74
2022/04/07 08:00:33;;;;;;;10.17;9.10;;;;;;;20.30;33.99;98242.00;5071868;28;20678;-73
2022/04/07 08:03:02;;;;;;;12.57;9.27;;;;;;;20.43;33.66;98242.09;5072906;28;20253;-75
2022/04/07 08:05:29;;;;;;;13.50;9.40;;;;;;;20.32;34.26;98237.13;5070977;28;20392;-76
2022/04/07 08:07:56;;;;;;;10.37;9.37;;;;;;;19.94;34.70;98227.31;5073698;28;20192;-76
2022/04/07 08:10:24;;;;;;;10.97;10.00;;;;;;;19.54;35.71;98233.09;5072726;28;20232;-75
2022/04/07 08:12:51;;;;;;;11.23;10.17;;;;;;;19.13;36.49;98226.44;5073332;28;20201;-76
2022/04/07 08:15:19;;;;;;;11.27;9.53;;;;;;;18.83;37.14;98227.47;5072739;28;20195;-75
2022/04/07 08:17:48;;;;;;;10.23;9.27;;;;;;;18.93;37.25;98221.22;5071896;28;20211;-76
2022/04/07 08:20:15;;;;;;;10.97;9.87;;;;;;;19.14;36.50;98225.34;5054721;28;20307;-75
2022/04/07 08:22:42;;;;;;;21.07;10.33;;;;;;;19.11;36.63;98228.63;5068016;28;20224;-78
2022/04/07 08:25:09;;;;;;;14.57;9.47;;;;;;;19.10;36.24;98221.59;5052939;28;20237;-80
2022/04/07 08:27:36;;;;;;;13.60;10.23;;;;;;;19.09;36.65;98220.00;5052973;28;20208;-73
2022/04/07 08:30:03;;;;;;;33.97;11.17;;;;;;;19.03;36.73;98210.38;5070431;28;20318;-78
2022/04/07 08:32:31;;;;;;;14.90;9.97;;;;;;;19.07;37.13;98216.81;5072448;28;20646;-76
2022/04/07 08:35:00;;;;;;;10.73;9.63;;;;;;;18.98;36.75;98205.00;5071933;28;20199;-75
2022/04/07 08:37:26;;;;;;;15.77;10.17;;;;;;;18.59;37.36;98188.09;5072265;28;20213;-85
2022/04/07 08:39:53;;;;;;;14.10;9.43;;;;;;;18.41;38.07;98186.03;5071679;28;20265;-75
2022/04/07 08:42:22;;;;;;;22.40;11.50;;;;;;;18.30;38.48;98179.88;5072239;28;20215;-82
2022/04/07 08:44:49;;;;;;;19.23;10.03;;;;;;;18.16;38.99;98172.69;5072526;28;20207;-81
2022/04/07 08:47:18;;;;;;;13.10;9.40;;;;;;;18.06;39.37;98162.81;5072210;28;20194;-81
2022/04/07 08:49:46;;;;;;;19.50;10.17;;;;;;;17.91;39.15;98148.63;5072137;28;20576;-81
2022/04/07 08:52:15;;;;;;;17.47;10.43;;;;;;;17.84;39.56;98143.56;5072487;28;20242;-81
2022/04/07 08:54:43;;;;;;;12.27;10.23;;;;;;;17.68;39.71;98130.47;5072067;28;20199;-84
2022/04/07 08:57:09;;;;;;;10.70;9.80;;;;;;;17.66;40.08;98124.56;5071821;28;20672;-79
2022/04/07 08:59:36;;;;;;;21.33;10.97;;;;;;;17.58;40.55;98111.72;5053866;28;20203;-79
2022/04/07 09:02:04;;;;;;;10.70;9.70;;;;;;;17.52;40.41;98094.03;5071887;28;20234;-85
2022/04/07 09:04:31;;;;;;;11.30;10.13;;;;;;;17.64;40.49;98078.41;5071583;28;20683;-79
2022/04/07 09:06:58;;;;;;;11.73;10.53;;;;;;;17.68;40.72;98074.09;5071878;28;20202;-74
2022/04/07 09:09:27;;;;;;;12.83;11.20;;;;;;;17.76;40.25;98073.50;5071922;28;20318;-75
2022/04/07 09:11:57;;;;;;;20.10;11.30;;;;;;;17.80;40.09;98078.03;5071655;28;20263;-74
2022/04/07 09:14:24;;;;;;;13.53;10.03;;;;;;;17.79;40.43;98064.88;5071568;28;20731;-73
2022/04/07 09:16:54;;;;;;;14.80;11.00;;;;;;;17.77;40.27;98061.69;5071433;28;20200;-85
2022/04/07 09:19:22;;;;;;;13.67;11.33;;;;;;;17.65;40.32;98056.66;5071766;28;20273;-77
2022/04/07 09:21:51;;;;;;;17.93;10.70;;;;;;;17.56;41.66;98044.06;5071782;28;20252;-79
2022/04/07 09:24:28;;;;;;;12.03;10.70;;;;;;;17.53;40.83;98041.94;5071289;28;20262;-77
2022/04/07 09:26:54;;;;;;;12.10;10.40;;;;;;;17.42;41.15;98026.94;5066751;28;20196;-75
2022/04/07 09:29:21;;;;;;;14.83;10.77;;;;;;;17.39;41.53;98035.53;5051411;28;20600;-75
2022/04/07 09:31:53;;;;;;;13.57;12.00;;;;;;;17.26;46.95;98002.00;5064585;28;20192;-73
2022/04/07 09:34:31;;;;;;;13.13;11.53;;;;;;;17.18;42.41;98009.81;5071530;28;20184;-73
2022/04/07 09:37:05;;;;;;;11.93;10.70;;;;;;;16.94;42.57;98016.91;5071387;28;20184;-75
2022/04/07 09:39:36;;;;;;;75.20;49.67;;;;;;;17.10;45.51;98035.34;5071056;28;20370;-76
2022/04/07 09:42:19;;;;;;;20.33;14.73;;;;;;;17.48;44.81;98052.69;5065870;28;20195;-73
2022/04/07 09:44:46;;;;;;;180.67;129.90;;;;;;;18.11;44.37;98051.81;5071621;28;20576;-77
2022/04/07 09:47:13;;;;;;;23.53;18.53;;;;;;;18.38;40.67;98065.63;5071543;28;20246;-73
2022/04/07 09:49:42;;;;;;;26.83;17.53;;;;;;;18.80;40.96;98076.56;5053672;28;20696;-74
2022/04/07 09:52:15;;;;;;;20.33;15.03;;;;;;;18.65;39.24;98065.91;5071743;28;20282;-77
2022/04/07 09:54:50;;;;;;;18.67;12.50;;;;;;;18.46;41.33;98059.66;5072497;28;20228;-72
2022/04/07 09:57:18;;;;;;;24.13;11.57;;;;;;;18.66;39.95;98068.34;5070771;28;20204;-78
2022/04/07 09:59:47;;;;;;;10.93;9.77;;;;;;;18.45;40.73;98047.25;5071498;28;20257;-77
2022/04/07 10:02:17;;;;;;;12.90;9.67;;;;;;;18.18;41.96;98031.56;5070965;28;20670;-79
2022/04/07 10:04:48;;;;;;;13.60;9.33;;;;;;;18.43;41.23;98019.88;5071232;28;20283;-79
2022/04/07 10:07:16;;;;;;;15.63;10.33;;;;;;;18.66;39.88;98017.22;5053616;28;20196;-79
2022/04/07 10:09:46;;;;;;;10.83;9.00;;;;;;;18.73;39.82;98016.91;5071404;28;20319;-79
2022/04/07 10:12:16;;;;;;;9.37;8.50;;;;;;;18.88;39.89;97998.72;5071348;28;20202;-78
2022/04/07 10:14:43;;;;;;;10.90;9.83;;;;;;;18.80;38.00;97987.78;5071110;28;20236;-79
2022/04/07 10:17:13;;;;;;;18.23;9.83;;;;;;;18.51;38.71;97981.63;5071566;28;20201;-80
2022/04/07 10:19:49;;;;;;;14.03;9.27;;;;;;;18.58;39.24;97965.97;5072071;28;20202;-74
2022/04/07 10:22:55;;;;;;;11.17;9.50;;;;;;;18.60;38.43;97961.09;5071308;28;20180;-73
2022/04/07 10:25:25;;;;;;;16.97;10.60;;;;;;;18.56;38.74;97968.13;5071637;28;20193;-73
2022/04/07 10:27:54;;;;;;;13.83;8.93;;;;;;;18.56;39.40;97951.97;5071371;28;20199;-78
2022/04/07 10:30:22;;;;;;;14.83;9.63;;;;;;;18.67;39.15;97948.13;5074678;28;20196;-76
2022/04/07 10:32:50;;;;;;;15.23;9.47;;;;;;;18.77;38.13;97937.22;5074824;28;20195;-80
2022/04/07 10:35:36;;;;;;;19.83;9.77;;;;;;;18.78;39.82;97936.16;5074990;28;20222;-81
2022/04/07 10:38:04;;;;;;;12.00;9.30;;;;;;;18.69;38.86;97935.16;5074988;28;20205;-75
2022/04/07 10:40:50;;;;;;;16.00;9.27;;;;;;;18.58;38.78;97944.44;5057178;28;20207;-75
2022/04/07 10:43:25;;;;;;;10.90;9.70;;;;;;;18.65;38.93;97952.97;5062478;28;20229;-74
2022/04/07 10:45:55;;;;;;;11.47;9.50;;;;;;;18.43;39.87;97952.66;5074586;28;20209;-73
2022/04/07 10:48:25;;;;;;;10.47;9.37;;;;;;;18.39;40.71;97971.25;5073808;28;20212;-73
2022/04/07 10:50:55;;;;;;;9.30;8.30;;;;;;;18.27;40.39;97980.72;5075778;28;20527;-73
2022/04/07 10:53:28;;;;;;;12.13;9.40;;;;;;;17.91;41.88;97982.06;5056355;28;20583;-73
2022/04/07 10:59:27;;;;;;;10.67;9.60;;;;;;;17.35;43.88;97978.88;5073401;28;20233;-73
2022/04/07 11:01:58;;;;;;;12.13;9.93;;;;;;;17.28;44.29;97966.84;5073820;28;20626;-75
2022/04/07 11:04:36;;;;;;;11.13;9.50;;;;;;;17.08;44.23;97966.94;5074139;28;20204;-72
2022/04/07 11:07:19;;;;;;;13.17;9.43;;;;;;;17.17;43.91;97943.81;5074362;28;20252;-77
2022/04/07 11:09:48;;;;;;;10.00;9.10;;;;;;;17.56;43.15;97936.66;5073976;28;20232;-72
2022/04/07 11:12:20;;;;;;;10.73;8.37;;;;;;;17.83;41.99;97931.63;5074069;28;20197;-78
2022/04/07 11:14:51;;;;;;;9.93;8.17;;;;;;;18.33;41.67;97925.84;5055417;28;20192;-72
2022/04/07 11:17:29;;;;;;;8.53;7.73;;;;;;;18.65;40.36;97940.31;5074764;28;20200;-73
2022/04/07 11:20:05;;;;;;;12.17;8.20;;;;;;;18.83;39.42;97938.78;5074106;28;20189;-73
2022/04/07 11:22:49;;;;;;;19.13;9.53;;;;;;;19.02;38.78;97934.25;5074115;28;20188;-73
2022/04/07 11:25:20;;;;;;;9.43;8.53;;;;;;;18.91;38.73;97932.78;5074044;28;20188;-74
2022/04/07 11:28:03;;;;;;;9.53;7.50;;;;;;;18.89;38.36;97934.94;5073835;28;20247;-74
2022/04/07 11:30:37;;;;;;;16.63;8.23;;;;;;;18.77;38.54;97948.00;5073825;28;20244;-76
2022/04/07 11:33:36;;;;;;;12.53;7.83;;;;;;;18.80;38.70;97947.44;5073320;28;20196;-75
2022/04/07 11:36:32;;;;;;;9.07;7.83;;;;;;;18.77;38.25;97953.38;5009196;28;20743;-74